createdAt,value
2016-07-23T00:00:08.503Z,74286
2016-07-23T00:00:17.233Z,74283
2016-07-23T00:00:25.903Z,74286
2016-07-23T00:00:34.608Z,74282
2016-07-23T00:00:43.324Z,74282
2016-07-23T00:00:51.990Z,74283
2016-07-23T00:01:00.687Z,74284
2016-07-23T00:01:09.421Z,74285
2016-07-23T00:01:18.159Z,74279
2016-07-23T00:01:26.865Z,74280
2016-07-23T00:01:35.586Z,74281
2016-07-23T00:01:44.323Z,74281
2016-07-23T00:01:53.005Z,74279
2016-07-23T00:02:01.893Z,74278
2016-07-23T00:02:10.595Z,74280
2016-07-23T00:02:19.280Z,74281
2016-07-23T00:02:27.990Z,74279
2016-07-23T00:02:36.677Z,74282
2016-07-23T00:02:45.388Z,74278
2016-07-23T00:02:54.079Z,74279
2016-07-23T00:03:02.829Z,74280
2016-07-23T00:03:11.503Z,74280
2016-07-23T00:03:20.173Z,74278
2016-07-23T00:03:28.890Z,74275
2016-07-23T00:03:37.575Z,74277
2016-07-23T00:03:46.284Z,74280
2016-07-23T00:03:55.000Z,74277
2016-07-23T00:04:03.759Z,74275
2016-07-23T00:04:12.438Z,74277
2016-07-23T00:04:21.137Z,74279
2016-07-23T00:04:29.841Z,74277
2016-07-23T00:04:38.568Z,74278
2016-07-23T00:04:47.290Z,74276
2016-07-23T00:04:55.963Z,74273
2016-07-23T00:05:04.666Z,74274
2016-07-23T00:05:13.361Z,74276
2016-07-23T00:05:22.128Z,74275
2016-07-23T00:05:30.837Z,74271
2016-07-23T00:05:39.584Z,74277
2016-07-23T00:05:48.315Z,74274
2016-07-23T00:05:57.050Z,74277
2016-07-23T00:06:05.786Z,74277
2016-07-23T00:06:14.469Z,74277
2016-07-23T00:06:23.140Z,74276
2016-07-23T00:06:31.864Z,74277
2016-07-23T00:06:40.598Z,74282
2016-07-23T00:06:49.299Z,74279
2016-07-23T00:06:58.693Z,74282
2016-07-23T00:07:07.429Z,74284
2016-07-23T00:07:16.207Z,74279
2016-07-23T00:07:24.924Z,74279
2016-07-23T00:07:33.627Z,74278
2016-07-23T00:07:42.308Z,74277
2016-07-23T00:07:51.013Z,74278
2016-07-23T00:07:59.726Z,74278
2016-07-23T00:08:08.407Z,74276
2016-07-23T00:08:17.115Z,74276
2016-07-23T00:08:25.851Z,74278
2016-07-23T00:08:34.562Z,74275
2016-07-23T00:08:43.276Z,74279
2016-07-23T00:08:52.007Z,74276
2016-07-23T00:09:00.743Z,74274
2016-07-23T00:09:09.523Z,74276
2016-07-23T00:09:18.240Z,74275
2016-07-23T00:09:26.904Z,74275
2016-07-23T00:09:35.578Z,74276
2016-07-23T00:09:44.255Z,74272
2016-07-23T00:09:52.991Z,74271
2016-07-23T00:10:01.730Z,74275
2016-07-23T00:10:10.424Z,74273
2016-07-23T00:10:19.106Z,74276
2016-07-23T00:10:27.850Z,74275
2016-07-23T00:10:36.619Z,74276
2016-07-23T00:10:45.326Z,74277
2016-07-23T00:10:54.723Z,74279
2016-07-23T00:11:03.428Z,74278
2016-07-23T00:11:12.187Z,74277
2016-07-23T00:11:20.890Z,74281
2016-07-23T00:11:29.606Z,74275
2016-07-23T00:11:38.321Z,74274
2016-07-23T00:11:47.011Z,74276
2016-07-23T00:11:55.754Z,74273
2016-07-23T00:12:04.491Z,74277
2016-07-23T00:12:13.221Z,74275
2016-07-23T00:12:21.965Z,74278
2016-07-23T00:12:30.656Z,74280
2016-07-23T00:12:39.349Z,74275
2016-07-23T00:12:48.048Z,74277
2016-07-23T00:12:56.727Z,74280
2016-07-23T00:13:05.390Z,74280
2016-07-23T00:13:14.106Z,74278
2016-07-23T00:13:22.842Z,74278
2016-07-23T00:13:31.527Z,74279
2016-07-23T00:13:40.220Z,74280
2016-07-23T00:13:48.936Z,74280
2016-07-23T00:13:57.647Z,74280
2016-07-23T00:14:06.339Z,74278
2016-07-23T00:14:15.019Z,74280
2016-07-23T00:14:23.747Z,74280
2016-07-23T00:14:32.493Z,74280
2016-07-23T00:14:41.227Z,74280
2016-07-23T00:14:49.923Z,74279
2016-07-23T00:14:58.592Z,74281
2016-07-23T00:15:07.323Z,74281
2016-07-23T00:15:16.069Z,74277
2016-07-23T00:15:24.776Z,74281
2016-07-23T00:15:33.499Z,74275
2016-07-23T00:15:42.242Z,74280
2016-07-23T00:15:50.975Z,74275
2016-07-23T00:15:59.724Z,74277
2016-07-23T00:16:08.470Z,74275
2016-07-23T00:16:17.221Z,74276
2016-07-23T00:16:25.961Z,74278
2016-07-23T00:16:34.650Z,74277
2016-07-23T00:16:43.376Z,74279
2016-07-23T00:16:52.095Z,74278
2016-07-23T00:17:00.798Z,74278
2016-07-23T00:17:09.522Z,74280
2016-07-23T00:17:18.194Z,74276
2016-07-23T00:17:26.918Z,74279
2016-07-23T00:17:35.629Z,74277
2016-07-23T00:17:44.309Z,74280
2016-07-23T00:17:53.073Z,74278
2016-07-23T00:18:01.846Z,74283
2016-07-23T00:18:10.585Z,74279
2016-07-23T00:18:19.282Z,74281
2016-07-23T00:18:27.994Z,74279
2016-07-23T00:18:36.716Z,74280
2016-07-23T00:18:45.446Z,74276
2016-07-23T00:18:54.172Z,74279
2016-07-23T00:19:02.874Z,74280
2016-07-23T00:19:11.609Z,74279
2016-07-23T00:19:20.270Z,74275
2016-07-23T00:19:28.991Z,74279
2016-07-23T00:19:37.703Z,74276
2016-07-23T00:19:46.396Z,74281
2016-07-23T00:19:55.094Z,74278
2016-07-23T00:20:03.837Z,74279
2016-07-23T00:20:12.560Z,74279
2016-07-23T00:20:21.244Z,74278
2016-07-23T00:20:29.973Z,74277
2016-07-23T00:20:38.694Z,74277
2016-07-23T00:20:47.426Z,74275
2016-07-23T00:20:56.837Z,74276
2016-07-23T00:21:05.500Z,74276
2016-07-23T00:21:14.192Z,74277
2016-07-23T00:21:22.892Z,74276
2016-07-23T00:21:31.600Z,74274
2016-07-23T00:21:40.333Z,74275
2016-07-23T00:21:48.995Z,74271
2016-07-23T00:21:57.731Z,74270
2016-07-23T00:22:06.431Z,74267
2016-07-23T00:22:15.159Z,74265
2016-07-23T00:22:23.865Z,74268
2016-07-23T00:22:32.603Z,74268
2016-07-23T00:22:41.311Z,74265
2016-07-23T00:22:50.049Z,74266
2016-07-23T00:22:58.777Z,74264
2016-07-23T00:23:07.466Z,74266
2016-07-23T00:23:16.172Z,74268
2016-07-23T00:23:24.925Z,74270
2016-07-23T00:23:33.631Z,74272
2016-07-23T00:23:42.332Z,74270
2016-07-23T00:23:51.034Z,74276
2016-07-23T00:23:59.776Z,74272
2016-07-23T00:24:08.478Z,74273
2016-07-23T00:24:17.205Z,74273
2016-07-23T00:24:25.933Z,74277
2016-07-23T00:24:34.678Z,74273
2016-07-23T00:24:43.413Z,74272
2016-07-23T00:24:52.142Z,74273
2016-07-23T00:25:00.825Z,74271
2016-07-23T00:25:09.523Z,74273
2016-07-23T00:25:18.277Z,74271
2016-07-23T00:25:26.945Z,74273
2016-07-23T00:25:35.659Z,74274
2016-07-23T00:25:44.362Z,74272
2016-07-23T00:25:53.047Z,74274
2016-07-23T00:26:01.760Z,74276
2016-07-23T00:26:10.485Z,74274
2016-07-23T00:26:19.215Z,74276
2016-07-23T00:26:27.920Z,74276
2016-07-23T00:26:36.641Z,74277
2016-07-23T00:26:45.339Z,74277
2016-07-23T00:26:54.061Z,74274
2016-07-23T00:27:02.784Z,74272
2016-07-23T00:27:12.169Z,74273
2016-07-23T00:27:20.847Z,74267
2016-07-23T00:27:29.537Z,74267
2016-07-23T00:27:38.258Z,74269
2016-07-23T00:27:46.970Z,74268
2016-07-23T00:27:55.639Z,74265
2016-07-23T00:28:04.371Z,74273
2016-07-23T00:28:13.099Z,74272
2016-07-23T00:28:22.497Z,74274
2016-07-23T00:28:31.210Z,74276
2016-07-23T00:28:39.891Z,74278
2016-07-23T00:28:48.611Z,74284
2016-07-23T00:28:57.298Z,74284
2016-07-23T00:29:06.043Z,74280
2016-07-23T00:29:14.765Z,74278
2016-07-23T00:29:23.478Z,74281
2016-07-23T00:29:32.186Z,74281
2016-07-23T00:29:40.904Z,74284
2016-07-23T00:29:49.594Z,74284
2016-07-23T00:29:58.283Z,74284
2016-07-23T00:30:06.992Z,74284
2016-07-23T00:30:15.704Z,74284
2016-07-23T00:30:24.434Z,74284
2016-07-23T00:30:33.129Z,74284
2016-07-23T00:30:41.816Z,74288
2016-07-23T00:30:50.534Z,74282
2016-07-23T00:30:59.241Z,74281
2016-07-23T00:31:08.008Z,74277
2016-07-23T00:31:16.726Z,74275
2016-07-23T00:31:25.447Z,74279
2016-07-23T00:31:34.139Z,74284
2016-07-23T00:31:42.844Z,74280
2016-07-23T00:31:51.546Z,74281
2016-07-23T00:32:00.263Z,74284
2016-07-23T00:32:08.998Z,74283
2016-07-23T00:32:17.723Z,74282
2016-07-23T00:32:26.452Z,74282
2016-07-23T00:32:35.131Z,74282
2016-07-23T00:32:43.831Z,74279
2016-07-23T00:32:52.553Z,74282
2016-07-23T00:33:01.288Z,74282
2016-07-23T00:33:10.691Z,74279
2016-07-23T00:33:19.428Z,74279
2016-07-23T00:33:28.156Z,74276
2016-07-23T00:33:36.895Z,74277
2016-07-23T00:33:45.582Z,74277
2016-07-23T00:33:54.276Z,74278
2016-07-23T00:34:02.999Z,74272
2016-07-23T00:34:11.715Z,74273
2016-07-23T00:34:20.401Z,74274
2016-07-23T00:34:29.131Z,74267
2016-07-23T00:34:37.869Z,74270
2016-07-23T00:34:46.595Z,74272
2016-07-23T00:34:55.290Z,74275
2016-07-23T00:35:03.996Z,74274
2016-07-23T00:35:12.673Z,74274
2016-07-23T00:35:21.395Z,74275
2016-07-23T00:35:30.083Z,74281
2016-07-23T00:35:38.782Z,74285
2016-07-23T00:35:47.511Z,74283
2016-07-23T00:35:56.234Z,74285
2016-07-23T00:36:04.954Z,74284
2016-07-23T00:36:13.695Z,74287
2016-07-23T00:36:22.411Z,74285
2016-07-23T00:36:31.111Z,74286
2016-07-23T00:36:39.827Z,74287
2016-07-23T00:36:48.509Z,74283
2016-07-23T00:36:57.215Z,74284
2016-07-23T00:37:05.954Z,74283
2016-07-23T00:37:14.683Z,74277
2016-07-23T00:37:23.379Z,74278
2016-07-23T00:37:32.064Z,74279
2016-07-23T00:37:40.783Z,74277
2016-07-23T00:37:49.521Z,74278
2016-07-23T00:37:58.228Z,74280
2016-07-23T00:38:06.925Z,74281
2016-07-23T00:38:15.605Z,74276
2016-07-23T00:38:24.316Z,74282
2016-07-23T00:38:33.059Z,74280
2016-07-23T00:38:41.812Z,74280
2016-07-23T00:38:50.516Z,74280
2016-07-23T00:38:59.212Z,74280
2016-07-23T00:39:07.938Z,74276
2016-07-23T00:39:16.631Z,74274
2016-07-23T00:39:25.306Z,74272
2016-07-23T00:39:33.989Z,74278
2016-07-23T00:39:42.701Z,74277
2016-07-23T00:39:52.111Z,74270
2016-07-23T00:40:00.796Z,74274
2016-07-23T00:40:10.231Z,74274
2016-07-23T00:40:18.950Z,74266
2016-07-23T00:40:27.630Z,74270
2016-07-23T00:40:36.333Z,74281
2016-07-23T00:40:45.042Z,74284
2016-07-23T00:40:53.778Z,74289
2016-07-23T00:41:02.485Z,74289
2016-07-23T00:41:11.218Z,74285
2016-07-23T00:41:19.874Z,74285
2016-07-23T00:41:28.604Z,74278
2016-07-23T00:41:37.298Z,74274
2016-07-23T00:41:45.985Z,74272
2016-07-23T00:41:54.702Z,74267
2016-07-23T00:42:03.391Z,74263
2016-07-23T00:42:12.115Z,74258
2016-07-23T00:42:20.841Z,74263
2016-07-23T00:42:29.542Z,74260
2016-07-23T00:42:38.264Z,74263
2016-07-23T00:42:46.964Z,74265
2016-07-23T00:42:55.707Z,74272
2016-07-23T00:43:04.397Z,74276
2016-07-23T00:43:13.054Z,74275
2016-07-23T00:43:21.781Z,74278
2016-07-23T00:43:30.505Z,74277
2016-07-23T00:43:39.889Z,74278
2016-07-23T00:43:48.595Z,74276
2016-07-23T00:43:57.316Z,74277
2016-07-23T00:44:06.042Z,74279
2016-07-23T00:44:14.739Z,74278
2016-07-23T00:44:23.458Z,74276
2016-07-23T00:44:32.154Z,74277
2016-07-23T00:44:40.905Z,74275
2016-07-23T00:44:49.624Z,74275
2016-07-23T00:44:58.299Z,74279
2016-07-23T00:45:07.019Z,74274
2016-07-23T00:45:15.742Z,74274
2016-07-23T00:45:24.411Z,74276
2016-07-23T00:45:33.094Z,74274
2016-07-23T00:45:41.781Z,74273
2016-07-23T00:45:50.480Z,74275
2016-07-23T00:45:59.219Z,74274
2016-07-23T00:46:07.887Z,74275
2016-07-23T00:46:16.592Z,74271
2016-07-23T00:46:25.299Z,74272
2016-07-23T00:46:34.011Z,74272
2016-07-23T00:46:42.710Z,74272
2016-07-23T00:46:51.422Z,74268
2016-07-23T00:47:00.194Z,74268
2016-07-23T00:47:08.896Z,74271
2016-07-23T00:47:17.605Z,74276
2016-07-23T00:47:26.342Z,74277
2016-07-23T00:47:35.023Z,74276
2016-07-23T00:47:43.762Z,74279
2016-07-23T00:47:52.508Z,74281
2016-07-23T00:48:01.210Z,74280
2016-07-23T00:48:09.912Z,74283
2016-07-23T00:48:18.642Z,74279
2016-07-23T00:48:27.343Z,74272
2016-07-23T00:48:36.093Z,74272
2016-07-23T00:48:44.795Z,74269
2016-07-23T00:48:53.478Z,74268
2016-07-23T00:49:02.193Z,74265
2016-07-23T00:49:10.957Z,74267
2016-07-23T00:49:19.676Z,74269
2016-07-23T00:49:28.390Z,74268
2016-07-23T00:49:37.111Z,74267
2016-07-23T00:49:45.835Z,74265
2016-07-23T00:49:54.535Z,74270
2016-07-23T00:50:03.242Z,74268
2016-07-23T00:50:11.945Z,74274
2016-07-23T00:50:20.646Z,74274
2016-07-23T00:50:29.357Z,74271
2016-07-23T00:50:38.084Z,74272
2016-07-23T00:50:46.843Z,74270
2016-07-23T00:50:55.549Z,74270
2016-07-23T00:51:04.281Z,74270
2016-07-23T00:51:12.975Z,74268
2016-07-23T00:51:21.692Z,74269
2016-07-23T00:51:30.416Z,74269
2016-07-23T00:51:39.162Z,74268
2016-07-23T00:51:47.875Z,74267
2016-07-23T00:51:56.596Z,74268
2016-07-23T00:52:05.284Z,74268
2016-07-23T00:52:14.007Z,74265
2016-07-23T00:52:22.710Z,74264
2016-07-23T00:52:31.477Z,74267
2016-07-23T00:52:40.203Z,74266
2016-07-23T00:52:48.908Z,74264
2016-07-23T00:52:57.600Z,74267
2016-07-23T00:53:06.272Z,74266
2016-07-23T00:53:15.006Z,74267
2016-07-23T00:53:23.756Z,74266
2016-07-23T00:53:32.435Z,74265
2016-07-23T00:53:41.113Z,74265
2016-07-23T00:53:49.822Z,74267
2016-07-23T00:53:58.515Z,74261
2016-07-23T00:54:07.175Z,74266
2016-07-23T00:54:15.932Z,74269
2016-07-23T00:54:24.651Z,74268
2016-07-23T00:54:33.309Z,74269
2016-07-23T00:54:42.070Z,74270
2016-07-23T00:54:50.809Z,74266
2016-07-23T00:54:59.507Z,74266
2016-07-23T00:55:08.168Z,74267
2016-07-23T00:55:16.875Z,74267
2016-07-23T00:55:25.592Z,74267
2016-07-23T00:55:34.313Z,74269
2016-07-23T00:55:42.993Z,74270
2016-07-23T00:55:51.738Z,74267
2016-07-23T00:56:00.486Z,74268
2016-07-23T00:56:09.218Z,74268
2016-07-23T00:56:17.916Z,74270
2016-07-23T00:56:27.289Z,74271
2016-07-23T00:56:36.015Z,74269
2016-07-23T00:56:44.790Z,74267
2016-07-23T00:56:53.515Z,74271
2016-07-23T00:57:02.235Z,74269
2016-07-23T00:57:10.961Z,74269
2016-07-23T00:57:19.648Z,74271
2016-07-23T00:57:28.370Z,74273
2016-07-23T00:57:37.096Z,74272
2016-07-23T00:57:45.855Z,74271
2016-07-23T00:57:54.615Z,74271
2016-07-23T00:58:03.339Z,74268
2016-07-23T00:58:12.062Z,74271
2016-07-23T00:58:20.795Z,74268
2016-07-23T00:58:29.506Z,74269
2016-07-23T00:58:38.212Z,74267
2016-07-23T00:58:46.915Z,74267
2016-07-23T00:58:55.618Z,74270
2016-07-23T00:59:04.317Z,74271
2016-07-23T00:59:13.003Z,74268
2016-07-23T00:59:21.714Z,74269
2016-07-23T00:59:30.389Z,74269
2016-07-23T00:59:39.121Z,74267
2016-07-23T00:59:47.837Z,74269
2016-07-23T00:59:56.603Z,74268
2016-07-23T01:00:05.303Z,74269
2016-07-23T01:00:14.042Z,74267
2016-07-23T01:00:22.770Z,74270
2016-07-23T01:00:31.451Z,74268
2016-07-23T01:00:40.140Z,74268
2016-07-23T01:00:48.858Z,74270
2016-07-23T01:00:57.578Z,74268
2016-07-23T01:01:06.319Z,74269
2016-07-23T01:01:15.013Z,74272
2016-07-23T01:01:23.715Z,74267
2016-07-23T01:01:32.416Z,74268
2016-07-23T01:01:41.084Z,74266
2016-07-23T01:01:49.777Z,74270
2016-07-23T01:01:58.653Z,74270
2016-07-23T01:02:07.317Z,74270
2016-07-23T01:02:16.060Z,74274
2016-07-23T01:02:24.737Z,74271
2016-07-23T01:02:33.483Z,74268
2016-07-23T01:02:42.174Z,74272
2016-07-23T01:02:50.901Z,74267
2016-07-23T01:02:59.632Z,74271
2016-07-23T01:03:08.355Z,74270
2016-07-23T01:03:17.070Z,74272
2016-07-23T01:03:25.759Z,74273
2016-07-23T01:03:34.475Z,74272
2016-07-23T01:03:43.204Z,74270
2016-07-23T01:03:51.901Z,74274
2016-07-23T01:04:00.610Z,74274
2016-07-23T01:04:09.329Z,74274
2016-07-23T01:04:18.045Z,74272
2016-07-23T01:04:26.803Z,74271
2016-07-23T01:04:35.531Z,74273
2016-07-23T01:04:44.957Z,74274
2016-07-23T01:04:53.682Z,74271
2016-07-23T01:05:02.402Z,74271
2016-07-23T01:05:11.066Z,74269
2016-07-23T01:05:19.779Z,74271
2016-07-23T01:05:28.465Z,74273
2016-07-23T01:05:37.206Z,74272
2016-07-23T01:05:45.973Z,74273
2016-07-23T01:05:54.663Z,74272
2016-07-23T01:06:03.360Z,74273
2016-07-23T01:06:12.027Z,74274
2016-07-23T01:06:20.740Z,74274
2016-07-23T01:06:29.469Z,74276
2016-07-23T01:06:38.177Z,74272
2016-07-23T01:06:46.850Z,74273
2016-07-23T01:06:55.539Z,74273
2016-07-23T01:07:04.956Z,74272
2016-07-23T01:07:13.693Z,74271
2016-07-23T01:07:22.395Z,74271
2016-07-23T01:07:31.096Z,74272
2016-07-23T01:07:39.849Z,74269
2016-07-23T01:07:48.595Z,74274
2016-07-23T01:07:57.290Z,74272
2016-07-23T01:08:06.023Z,74273
2016-07-23T01:08:14.707Z,74273
2016-07-23T01:08:23.389Z,74273
2016-07-23T01:08:32.129Z,74273
2016-07-23T01:08:40.853Z,74275
2016-07-23T01:08:49.593Z,74274
2016-07-23T01:08:58.294Z,74277
2016-07-23T01:09:07.047Z,74275
2016-07-23T01:09:15.738Z,74279
2016-07-23T01:09:24.481Z,74276
2016-07-23T01:09:33.180Z,74276
2016-07-23T01:09:41.890Z,74275
2016-07-23T01:09:50.572Z,74275
2016-07-23T01:09:59.290Z,74276
2016-07-23T01:10:08.037Z,74277
2016-07-23T01:10:16.764Z,74275
2016-07-23T01:10:25.482Z,74274
2016-07-23T01:10:34.828Z,74276
2016-07-23T01:10:43.508Z,74275
2016-07-23T01:10:52.211Z,74275
2016-07-23T01:11:00.977Z,74273
2016-07-23T01:11:09.695Z,74273
2016-07-23T01:11:18.419Z,74272
2016-07-23T01:11:27.132Z,74272
2016-07-23T01:11:35.869Z,74273
2016-07-23T01:11:44.592Z,74272
2016-07-23T01:11:53.328Z,74275
2016-07-23T01:12:02.072Z,74272
2016-07-23T01:12:10.760Z,74278
2016-07-23T01:12:19.506Z,74268
2016-07-23T01:12:28.196Z,74273
2016-07-23T01:12:36.892Z,74270
2016-07-23T01:12:45.592Z,74271
2016-07-23T01:12:54.320Z,74271
2016-07-23T01:13:03.043Z,74270
2016-07-23T01:13:11.733Z,74272
2016-07-23T01:13:20.443Z,74272
2016-07-23T01:13:29.128Z,74271
2016-07-23T01:13:37.794Z,74273
2016-07-23T01:13:46.498Z,74273
2016-07-23T01:13:55.197Z,74271
2016-07-23T01:14:03.877Z,74274
2016-07-23T01:14:12.559Z,74271
2016-07-23T01:14:21.259Z,74271
2016-07-23T01:14:29.948Z,74276
2016-07-23T01:14:38.682Z,74273
2016-07-23T01:14:47.406Z,74274
2016-07-23T01:14:56.103Z,74274
2016-07-23T01:15:04.819Z,74275
2016-07-23T01:15:13.478Z,74275
2016-07-23T01:15:22.179Z,74275
2016-07-23T01:15:30.928Z,74274
2016-07-23T01:15:39.644Z,74278
2016-07-23T01:15:48.367Z,74278
2016-07-23T01:15:57.065Z,74276
2016-07-23T01:16:05.737Z,74277
2016-07-23T01:16:14.463Z,74280
2016-07-23T01:16:23.158Z,74280
2016-07-23T01:16:31.894Z,74276
2016-07-23T01:16:40.631Z,74280
2016-07-23T01:16:49.309Z,74278
2016-07-23T01:16:58.021Z,74278
2016-07-23T01:17:06.717Z,74280
2016-07-23T01:17:15.417Z,74280
2016-07-23T01:17:24.140Z,74280
2016-07-23T01:17:32.849Z,74280
2016-07-23T01:17:41.569Z,74277
2016-07-23T01:17:50.259Z,74277
2016-07-23T01:17:58.963Z,74277
2016-07-23T01:18:07.679Z,74277
2016-07-23T01:18:16.383Z,74277
2016-07-23T01:18:25.106Z,74278
2016-07-23T01:18:33.830Z,74278
2016-07-23T01:18:42.548Z,74275
2016-07-23T01:18:51.285Z,74277
2016-07-23T01:18:59.967Z,74277
2016-07-23T01:19:08.673Z,74276
2016-07-23T01:19:17.328Z,74276
2016-07-23T01:19:25.981Z,74277
2016-07-23T01:19:34.679Z,74277
2016-07-23T01:19:43.342Z,74276
2016-07-23T01:19:52.041Z,74271
2016-07-23T01:20:00.741Z,74272
2016-07-23T01:20:10.138Z,74273
2016-07-23T01:20:18.905Z,74276
2016-07-23T01:20:27.612Z,74274
2016-07-23T01:20:36.990Z,74274
2016-07-23T01:20:45.720Z,74272
2016-07-23T01:20:54.431Z,74276
2016-07-23T01:21:03.151Z,74274
2016-07-23T01:21:11.839Z,74275
2016-07-23T01:21:20.558Z,74274
2016-07-23T01:21:29.313Z,74275
2016-07-23T01:21:38.016Z,74274
2016-07-23T01:21:46.719Z,74273
2016-07-23T01:21:55.447Z,74277
2016-07-23T01:22:04.178Z,74275
2016-07-23T01:22:12.887Z,74274
2016-07-23T01:22:21.624Z,74275
2016-07-23T01:22:30.350Z,74273
2016-07-23T01:22:39.083Z,74274
2016-07-23T01:22:47.801Z,74277
2016-07-23T01:22:56.525Z,74275
2016-07-23T01:23:05.250Z,74280
2016-07-23T01:23:13.985Z,74278
2016-07-23T01:23:22.693Z,74276
2016-07-23T01:23:31.369Z,74274
2016-07-23T01:23:40.098Z,74277
2016-07-23T01:23:48.837Z,74278
2016-07-23T01:23:57.521Z,74277
2016-07-23T01:24:06.933Z,74276
2016-07-23T01:24:15.641Z,74277
2016-07-23T01:24:24.342Z,74273
2016-07-23T01:24:33.054Z,74273
2016-07-23T01:24:41.742Z,74277
2016-07-23T01:24:50.439Z,74273
2016-07-23T01:24:59.136Z,74273
2016-07-23T01:25:07.859Z,74276
2016-07-23T01:25:16.589Z,74276
2016-07-23T01:25:25.311Z,74275
2016-07-23T01:25:34.019Z,74274
2016-07-23T01:25:42.721Z,74271
2016-07-23T01:25:51.423Z,74275
2016-07-23T01:26:00.154Z,74274
2016-07-23T01:26:08.879Z,74274
2016-07-23T01:26:17.600Z,74275
2016-07-23T01:26:26.333Z,74275
2016-07-23T01:26:35.070Z,74276
2016-07-23T01:26:43.775Z,74272
2016-07-23T01:26:52.516Z,74273
2016-07-23T01:27:01.199Z,74273
2016-07-23T01:27:09.884Z,74272
2016-07-23T01:27:18.625Z,74272
2016-07-23T01:27:27.348Z,74272
2016-07-23T01:27:36.078Z,74270
2016-07-23T01:27:44.787Z,74268
2016-07-23T01:27:53.510Z,74269
2016-07-23T01:28:02.246Z,74268
2016-07-23T01:28:10.932Z,74268
2016-07-23T01:28:19.655Z,74268
2016-07-23T01:28:28.353Z,74269
2016-07-23T01:28:37.098Z,74266
2016-07-23T01:28:45.823Z,74264
2016-07-23T01:28:54.566Z,74266
2016-07-23T01:29:03.284Z,74261
2016-07-23T01:29:12.698Z,74264
2016-07-23T01:29:21.414Z,74261
2016-07-23T01:29:30.083Z,74266
2016-07-23T01:29:38.828Z,74262
2016-07-23T01:29:47.525Z,74263
2016-07-23T01:29:56.257Z,74267
2016-07-23T01:30:04.978Z,74268
2016-07-23T01:30:13.663Z,74267
2016-07-23T01:30:22.371Z,74269
2016-07-23T01:30:31.090Z,74271
2016-07-23T01:30:39.826Z,74270
2016-07-23T01:30:48.492Z,74269
2016-07-23T01:30:57.212Z,74271
2016-07-23T01:31:05.936Z,74269
2016-07-23T01:31:14.652Z,74270
2016-07-23T01:31:23.395Z,74271
2016-07-23T01:31:32.049Z,74270
2016-07-23T01:31:40.744Z,74272
2016-07-23T01:31:49.440Z,74265
2016-07-23T01:31:58.122Z,74272
2016-07-23T01:32:06.834Z,74268
2016-07-23T01:32:15.522Z,74265
2016-07-23T01:32:24.211Z,74271
2016-07-23T01:32:32.961Z,74267
2016-07-23T01:32:41.633Z,74267
2016-07-23T01:32:50.341Z,74265
2016-07-23T01:32:59.033Z,74265
2016-07-23T01:33:07.761Z,74264
2016-07-23T01:33:16.426Z,74265
2016-07-23T01:33:25.160Z,74263
2016-07-23T01:33:33.919Z,74270
2016-07-23T01:33:42.605Z,74270
2016-07-23T01:33:51.381Z,74269
2016-07-23T01:34:00.786Z,74265
2016-07-23T01:34:09.487Z,74268
2016-07-23T01:34:18.231Z,74270
2016-07-23T01:34:26.956Z,74267
2016-07-23T01:34:35.645Z,74267
2016-07-23T01:34:44.353Z,74265
2016-07-23T01:34:53.092Z,74264
2016-07-23T01:35:01.817Z,74265
2016-07-23T01:35:10.555Z,74263
2016-07-23T01:35:19.297Z,74267
2016-07-23T01:35:28.028Z,74266
2016-07-23T01:35:36.742Z,74260
2016-07-23T01:35:45.453Z,74264
2016-07-23T01:35:54.174Z,74263
2016-07-23T01:36:02.872Z,74265
2016-07-23T01:36:11.579Z,74264
2016-07-23T01:36:20.325Z,74266
2016-07-23T01:36:29.069Z,74269
2016-07-23T01:36:37.752Z,74266
2016-07-23T01:36:46.502Z,74269
2016-07-23T01:36:55.202Z,74265
2016-07-23T01:37:03.929Z,74263
2016-07-23T01:37:12.600Z,74263
2016-07-23T01:37:21.972Z,74265
2016-07-23T01:37:30.687Z,74264
2016-07-23T01:37:39.421Z,74265
2016-07-23T01:37:48.106Z,74264
2016-07-23T01:37:56.802Z,74262
2016-07-23T01:38:05.515Z,74262
2016-07-23T01:38:14.251Z,74262
2016-07-23T01:38:23.674Z,74260
2016-07-23T01:38:32.389Z,74263
2016-07-23T01:38:41.080Z,74261
2016-07-23T01:38:49.802Z,74262
2016-07-23T01:38:58.512Z,74262
2016-07-23T01:39:07.251Z,74263
2016-07-23T01:39:15.950Z,74262
2016-07-23T01:39:24.642Z,74263
2016-07-23T01:39:33.340Z,74262
2016-07-23T01:39:42.017Z,74260
2016-07-23T01:39:50.710Z,74264
2016-07-23T01:39:59.408Z,74264
2016-07-23T01:40:08.161Z,74266
2016-07-23T01:40:16.924Z,74267
2016-07-23T01:40:25.646Z,74264
2016-07-23T01:40:34.381Z,74263
2016-07-23T01:40:43.071Z,74261
2016-07-23T01:40:51.789Z,74262
2016-07-23T01:41:00.487Z,74261
2016-07-23T01:41:09.224Z,74261
2016-07-23T01:41:17.883Z,74259
2016-07-23T01:41:26.573Z,74258
2016-07-23T01:41:35.281Z,74257
2016-07-23T01:41:43.992Z,74256
2016-07-23T01:41:52.699Z,74256
2016-07-23T01:42:01.406Z,74256
2016-07-23T01:42:10.129Z,74255
2016-07-23T01:42:18.849Z,74257
2016-07-23T01:42:27.520Z,74256
2016-07-23T01:42:36.244Z,74257
2016-07-23T01:42:44.955Z,74260
2016-07-23T01:42:53.672Z,74257
2016-07-23T01:43:02.398Z,74261
2016-07-23T01:43:11.083Z,74256
2016-07-23T01:43:19.804Z,74256
2016-07-23T01:43:28.544Z,74256
2016-07-23T01:43:37.277Z,74261
2016-07-23T01:43:45.994Z,74258
2016-07-23T01:43:54.666Z,74258
2016-07-23T01:44:03.354Z,74260
2016-07-23T01:44:12.094Z,74259
2016-07-23T01:44:20.770Z,74258
2016-07-23T01:44:29.488Z,74258
2016-07-23T01:44:38.206Z,74258
2016-07-23T01:44:46.892Z,74258
2016-07-23T01:44:55.587Z,74259
2016-07-23T01:45:04.271Z,74258
2016-07-23T01:45:12.980Z,74252
2016-07-23T01:45:21.730Z,74253
2016-07-23T01:45:30.479Z,74254
2016-07-23T01:45:39.205Z,74255
2016-07-23T01:45:47.953Z,74255
2016-07-23T01:45:56.728Z,74255
2016-07-23T01:46:05.446Z,74256
2016-07-23T01:46:14.133Z,74257
2016-07-23T01:46:22.832Z,74259
2016-07-23T01:46:31.576Z,74256
2016-07-23T01:46:40.283Z,74258
2016-07-23T01:46:48.989Z,74257
2016-07-23T01:46:57.739Z,74258
2016-07-23T01:47:06.504Z,74260
2016-07-23T01:47:15.219Z,74261
2016-07-23T01:47:23.936Z,74260
2016-07-23T01:47:32.646Z,74257
2016-07-23T01:47:41.356Z,74257
2016-07-23T01:47:50.064Z,74253
2016-07-23T01:47:58.801Z,74260
2016-07-23T01:48:07.485Z,74258
2016-07-23T01:48:16.210Z,74258
2016-07-23T01:48:24.913Z,74256
2016-07-23T01:48:33.655Z,74258
2016-07-23T01:48:42.401Z,74257
2016-07-23T01:48:51.074Z,74259
2016-07-23T01:48:59.803Z,74256
2016-07-23T01:49:08.541Z,74255
2016-07-23T01:49:17.221Z,74253
2016-07-23T01:49:26.588Z,74256
2016-07-23T01:49:35.306Z,74255
2016-07-23T01:49:44.045Z,74254
2016-07-23T01:49:52.778Z,74254
2016-07-23T01:50:01.500Z,74250
2016-07-23T01:50:10.216Z,74252
2016-07-23T01:50:18.925Z,74252
2016-07-23T01:50:27.655Z,74255
2016-07-23T01:50:36.328Z,74253
2016-07-23T01:50:45.059Z,74258
2016-07-23T01:50:53.791Z,74257
2016-07-23T01:51:02.507Z,74261
2016-07-23T01:51:11.233Z,74260
2016-07-23T01:51:19.898Z,74261
2016-07-23T01:51:28.610Z,74261
2016-07-23T01:51:37.327Z,74257
2016-07-23T01:51:46.011Z,74257
2016-07-23T01:51:54.678Z,74254
2016-07-23T01:52:03.356Z,74255
2016-07-23T01:52:12.081Z,74256
2016-07-23T01:52:20.825Z,74256
2016-07-23T01:52:29.520Z,74256